Time;durP1;ratioP1;P1;durP2;ratioP2;P2;SDS_P1;SDS_P2;PMS_P1;PMS_P2;Temp;Humidity;BMP_temperature;BMP_pressure;BME280_temperature;BME280_humidity;BME280_pressure;Samples;Min_cycle;Max_cycle;Signal;HPM_P1;HPM_P2
2022/07/30 00:02:03;;;;;;;;;3.00;3.00;;;;;23.85;72.29;101374.25;5021702;28;45743;-80
2022/07/30 00:04:28;;;;;;;;;4.00;2.00;;;;;23.82;72.50;101380.38;5013984;28;45347;-82
2022/07/30 00:06:54;;;;;;;;;6.00;3.33;;;;;23.78;73.21;101370.84;5018925;28;45394;-80
2022/07/30 00:09:19;;;;;;;;;2.33;2.00;;;;;23.75;73.27;101375.06;5020994;28;45482;-81
2022/07/30 00:11:45;;;;;;;;;4.00;4.00;;;;;23.71;73.96;101370.31;5036567;28;45360;-81
2022/07/30 00:14:11;;;;;;;;;2.00;2.00;;;;;23.68;74.33;101370.88;5017174;28;45694;-81
2022/07/30 00:16:36;;;;;;;;;3.00;3.00;;;;;23.45;75.27;101345.13;5020369;28;47299;-80
2022/07/30 00:19:02;;;;;;;;;4.00;2.00;;;;;23.59;75.61;101374.25;5030722;28;45420;-79
2022/07/30 00:21:28;;;;;;;;;3.33;3.33;;;;;23.57;75.79;101376.47;5028601;28;45476;-82
2022/07/30 00:23:53;;;;;;;;;2.00;2.00;;;;;23.54;76.44;101379.00;5024337;28;45836;-81
2022/07/30 00:26:19;;;;;;;;;7.00;3.33;;;;;23.40;78.76;101373.16;5019468;28;45440;-81
2022/07/30 00:28:44;;;;;;;;;4.33;4.33;;;;;23.26;80.52;101362.50;5020683;28;45870;-81
2022/07/30 00:31:09;;;;;;;;;3.00;3.00;;;;;23.30;81.65;101376.78;5019630;28;45437;-81
2022/07/30 00:33:35;;;;;;;;;6.00;4.00;;;;;23.24;82.68;101375.91;5022659;28;45760;-81
2022/07/30 00:36:01;;;;;;;;;3.00;3.00;;;;;23.26;83.42;101381.25;5019385;28;45870;-82
2022/07/30 00:38:26;;;;;;;;;3.33;3.00;;;;;23.13;84.53;101365.84;5013736;28;45448;-81
2022/07/30 00:40:52;;;;;;;;;5.00;3.67;;;;;23.21;85.25;101372.84;5014284;28;45824;-81
2022/07/30 00:43:18;;;;;;;;;5.00;5.00;;;;;23.14;85.81;101366.69;5031649;28;46024;-81
2022/07/30 00:45:44;;;;;;;;;4.67;4.33;;;;;23.23;85.75;101376.19;5021477;28;47194;-81
2022/07/30 00:48:11;;;;;;;;;3.33;3.33;;;;;23.24;86.27;101372.28;5013525;28;45404;-81
2022/07/30 00:50:37;;;;;;;;;6.33;3.67;;;;;23.23;86.99;101371.47;5021996;28;45343;-82
2022/07/30 00:53:03;;;;;;;;;5.67;4.00;;;;;23.20;87.41;101365.56;5019862;28;45937;-81
2022/07/30 00:55:29;;;;;;;;;3.00;3.00;;;;;23.21;87.72;101361.66;5027697;28;46886;-82
2022/07/30 00:57:54;;;;;;;;;5.67;5.67;;;;;23.11;88.07;101347.66;5028057;28;45316;-81
2022/07/30 01:00:20;;;;;;;;;5.67;4.67;;;;;23.13;88.29;101353.81;5034120;28;45543;-80
2022/07/30 01:02:46;;;;;;;;;4.00;3.00;;;;;23.17;88.83;101363.31;5019378;28;45841;-81
2022/07/30 01:05:13;;;;;;;;;4.67;3.67;;;;;23.07;89.59;101350.97;5022217;28;46363;-81
2022/07/30 01:07:38;;;;;;;;;5.00;4.33;;;;;23.20;89.45;101354.38;5056315;28;45511;-81
2022/07/30 01:10:06;;;;;;;;;4.00;4.00;;;;;23.19;89.83;101359.13;5025301;28;45523;-81
2022/07/30 01:12:31;;;;;;;;;4.00;4.00;;;;;23.22;90.10;101364.19;5027711;28;45552;-82
2022/07/30 01:15:00;;;;;;;;;5.00;4.00;;;;;23.16;89.48;101356.91;5053066;28;47528;-80
2022/07/30 01:17:25;;;;;;;;;5.00;5.00;;;;;23.20;89.84;101359.97;5018374;28;45517;-83
2022/07/30 01:19:57;;;;;;;;;3.33;3.33;;;;;23.18;89.78;101360.25;5020522;28;45818;-81
2022/07/30 01:22:28;;;;;;;;;5.00;4.00;;;;;23.18;89.72;101357.44;5026100;28;45740;-81
2022/07/30 01:25:00;;;;;;;;;6.67;6.67;;;;;23.08;89.42;101349.00;5025541;28;45736;-84
2022/07/30 01:27:29;;;;;;;;;3.33;3.33;;;;;23.17;89.70;101360.53;5016300;28;45603;-81
2022/07/30 01:29:57;;;;;;;;;5.00;3.67;;;;;23.16;89.45;101364.44;5026292;28;45483;-80
2022/07/30 01:32:25;;;;;;;;;7.67;6.00;;;;;23.13;89.54;101357.47;5037455;28;45779;-82
2022/07/30 01:34:53;;;;;;;;;4.33;4.33;;;;;23.13;89.67;101353.81;5012628;28;46848;-81
2022/07/30 01:37:20;;;;;;;;;6.67;6.33;;;;;23.09;90.02;101350.69;5015653;28;45511;-80
2022/07/30 01:39:47;;;;;;;;;5.33;5.33;;;;;23.06;90.11;101354.88;5027413;28;45894;-81
2022/07/30 01:42:13;;;;;;;;;8.00;5.67;;;;;23.08;89.58;101355.47;5021663;28;46144;-80
2022/07/30 01:44:40;;;;;;;;;18.67;11.33;;;;;23.02;89.85;101350.13;5027466;28;47034;-80
2022/07/30 01:47:08;;;;;;;;;6.00;6.00;;;;;23.07;90.71;101359.38;5013339;28;45791;-79
2022/07/30 01:49:36;;;;;;;;;8.67;8.67;;;;;23.09;90.90;101359.09;5017656;28;45396;-80
2022/07/30 01:52:04;;;;;;;;;8.33;7.33;;;;;23.09;91.62;101364.69;5020856;28;45455;-81
2022/07/30 01:54:32;;;;;;;;;5.00;4.00;;;;;23.08;91.50;101360.22;5018688;28;46622;-80
2022/07/30 01:57:01;;;;;;;;;14.67;13.33;;;;;23.05;91.40;101356.03;5031947;28;45555;-81
2022/07/30 01:59:29;;;;;;;;;6.00;5.00;;;;;23.01;92.53;101354.91;5038685;28;44702;-78
2022/07/30 02:01:55;;;;;;;;;5.00;5.00;;;;;22.94;92.71;101350.69;5031879;28;45331;-81
2022/07/30 02:04:20;;;;;;;;;4.67;4.33;;;;;22.90;93.04;101350.41;5019071;28;45423;-80
2022/07/30 02:07:09;;;;;;;;;7.00;5.00;;;;;22.84;92.88;101348.72;5003518;28;45528;-82
2022/07/30 02:09:42;;;;;;;;;5.00;3.33;;;;;22.83;93.78;101355.41;5016892;28;45480;-81
2022/07/30 02:12:27;;;;;;;;;4.67;4.33;;;;;22.79;93.30;101357.94;5022432;28;45438;-80
2022/07/30 02:15:24;;;;;;;;;6.67;6.67;;;;;22.74;93.64;101357.94;5037192;28;45526;-80
2022/07/30 02:18:22;;;;;;;;;5.00;5.00;;;;;22.70;93.68;101356.81;5007485;28;45534;-79
2022/07/30 02:20:55;;;;;;;;;6.33;4.00;;;;;22.59;94.18;101349.47;5016297;28;45317;-81
2022/07/30 02:23:23;;;;;;;;;3.67;3.67;;;;;22.59;94.15;101355.94;5019607;28;45423;-81
2022/07/30 02:25:50;;;;;;;;;3.00;3.00;;;;;22.55;94.51;101360.38;5018165;28;45629;-80
2022/07/30 02:28:18;;;;;;;;;10.00;4.00;;;;;22.41;94.53;101342.44;5021950;28;45470;-81
2022/07/30 02:30:51;;;;;;;;;4.00;2.67;;;;;22.37;94.73;101342.16;5032781;28;45548;-82
2022/07/30 02:33:20;;;;;;;;;4.67;4.33;;;;;22.38;95.34;101350.28;5024794;28;45340;-82
2022/07/30 02:35:47;;;;;;;;;5.33;4.33;;;;;22.33;95.47;101344.66;5024542;28;46740;-81
2022/07/30 02:38:16;;;;;;;;;3.00;3.00;;;;;22.25;96.06;101342.34;5020069;28;45417;-81
2022/07/30 02:40:43;;;;;;;;;4.33;3.00;;;;;22.10;96.01;101331.13;5037127;28;45752;-81
2022/07/30 02:43:12;;;;;;;;;5.00;4.00;;;;;22.12;96.59;101340.06;5022228;28;45801;-83
2022/07/30 02:45:40;;;;;;;;;5.00;5.00;;;;;22.07;96.70;101349.25;5025501;28;45431;-81
2022/07/30 02:48:09;;;;;;;;;3.00;3.00;;;;;21.99;96.94;101344.19;5023325;28;45399;-80
2022/07/30 02:50:36;;;;;;;;;3.00;3.00;;;;;21.94;97.26;101341.38;5022563;28;45739;-81
2022/07/30 02:53:04;;;;;;;;;7.67;5.00;;;;;21.71;97.74;101317.50;5025703;28;45384;-82
2022/07/30 02:55:32;;;;;;;;;4.33;4.33;;;;;21.78;97.98;101341.28;5016779;28;45367;-82
2022/07/30 02:58:00;;;;;;;;;4.33;4.33;;;;;21.65;98.79;101331.44;5021435;28;45573;-80
2022/07/30 03:00:28;;;;;;;;;3.00;3.00;;;;;21.66;98.63;101347.06;5018866;28;44780;-81
2022/07/30 03:02:56;;;;;;;;;5.00;4.33;;;;;21.63;99.65;101343.97;5016281;28;45704;-82
2022/07/30 03:05:23;;;;;;;;;7.33;4.00;;;;;21.50;100.00;101343.31;5023179;28;45537;-80
2022/07/30 03:07:50;;;;;;;;;5.00;4.00;;;;;21.52;100.00;101357.00;5021858;28;45852;-80
2022/07/30 03:10:17;;;;;;;;;4.00;4.00;;;;;21.48;100.00;101361.41;5012496;28;45482;-82
2022/07/30 03:12:45;;;;;;;;;5.00;4.00;;;;;21.37;100.00;101342.91;5023101;28;45601;-82
2022/07/30 03:15:11;;;;;;;;;3.67;3.67;;;;;21.42;100.00;101354.97;5011129;28;47532;-83
2022/07/30 03:17:42;;;;;;;;;4.67;3.33;;;;;21.40;100.00;101347.97;5017089;28;45480;-80
2022/07/30 03:20:10;;;;;;;;;5.00;5.00;;;;;21.30;100.00;101335.63;5014007;28;44785;-81
2022/07/30 03:22:41;;;;;;;;;4.00;4.00;;;;;21.28;100.00;101335.03;5016897;28;45900;-80
2022/07/30 03:25:09;;;;;;;;;6.33;6.33;;;;;21.23;100.00;101340.56;5016269;28;47750;-80
2022/07/30 03:27:40;;;;;;;;;3.00;3.00;;;;;21.30;100.00;101351.50;5023432;28;45650;-81
2022/07/30 03:30:06;;;;;;;;;3.00;3.00;;;;;21.28;100.00;101348.97;5022596;28;45495;-84
2022/07/30 03:32:33;;;;;;;;;4.33;3.00;;;;;21.25;100.00;101346.72;5024986;28;45859;-80
2022/07/30 03:35:00;;;;;;;;;4.33;4.00;;;;;21.25;100.00;101348.69;5022867;28;45339;-80
2022/07/30 03:37:26;;;;;;;;;5.33;3.00;;;;;21.17;100.00;101336.06;5025291;28;45356;-80
2022/07/30 03:39:53;;;;;;;;;3.33;3.33;;;;;21.19;100.00;101345.00;5018592;28;45466;-80
2022/07/30 03:42:19;;;;;;;;;3.67;3.67;;;;;21.07;100.00;101331.22;5021559;28;45841;-81
2022/07/30 03:44:45;;;;;;;;;4.00;4.00;;;;;21.13;100.00;101348.84;5019044;28;45801;-79
2022/07/30 03:47:12;;;;;;;;;5.00;5.00;;;;;21.11;100.00;101354.69;5019584;28;45524;-81
2022/07/30 03:49:38;;;;;;;;;5.33;4.00;;;;;21.12;100.00;101361.09;5023796;28;45614;-81
2022/07/30 03:52:04;;;;;;;;;3.00;3.00;;;;;21.08;100.00;101359.97;5021283;28;46024;-81
2022/07/30 03:54:32;;;;;;;;;4.00;4.00;;;;;;;;5024499;28;47763;-80
2022/07/30 03:56:59;;;;;;;;;5.00;4.00;;;;;20.98;100.00;101361.53;5031947;28;45455;-78
2022/07/30 03:59:24;;;;;;;;;5.00;5.00;;;;;20.97;100.00;101359.88;5029915;28;45716;-77
2022/07/30 04:01:50;;;;;;;;;2.33;2.33;;;;;20.93;100.00;101364.28;5031749;28;45534;-79
2022/07/30 04:04:15;;;;;;;;;7.00;5.33;;;;;20.86;100.00;101346.09;5030374;28;46768;-81
2022/07/30 04:06:41;;;;;;;;;3.33;3.00;;;;;20.89;100.00;101354.75;5028554;28;45688;-79
2022/07/30 04:09:11;;;;;;;;;13.00;9.67;;;;;20.87;100.00;101350.53;5031687;28;45541;-79
2022/07/30 04:11:38;;;;;;;;;4.67;4.67;;;;;20.85;100.00;101353.59;5031281;28;45944;-81
2022/07/30 04:14:03;;;;;;;;;4.67;3.00;;;;;20.85;100.00;101356.38;5028050;28;45729;-78
2022/07/30 04:16:42;;;;;;;;;3.33;3.33;;;;;20.86;100.00;101362.81;5021201;28;45756;-81
2022/07/30 04:19:14;;;;;;;;;6.33;4.00;;;;;20.76;100.00;101344.03;5018521;28;45559;-80
2022/07/30 04:21:41;;;;;;;;;4.00;4.00;;;;;20.86;100.00;101360.03;5021524;28;45503;-82
2022/07/30 04:24:08;;;;;;;;;3.67;3.67;;;;;20.71;100.00;101333.66;5022466;28;45535;-80
2022/07/30 04:26:35;;;;;;;;;5.67;4.00;;;;;20.80;100.00;101348.81;5023489;28;45323;-78
2022/07/30 04:29:03;;;;;;;;;4.00;4.00;;;;;20.86;100.00;101355.28;5022915;28;45452;-80
2022/07/30 04:31:34;;;;;;;;;3.00;3.00;;;;;20.88;100.00;101364.22;5016771;28;45742;-79
2022/07/30 04:34:00;;;;;;;;;4.33;4.33;;;;;20.96;100.00;101374.09;5020982;28;46471;-81
2022/07/30 04:36:26;;;;;;;;;5.00;5.00;;;;;20.88;100.00;101358.63;5019634;28;45407;-81
2022/07/30 04:38:51;;;;;;;;;32.33;30.67;;;;;21.05;100.00;101371.63;5022148;28;45545;-81
2022/07/30 04:41:16;;;;;;;;;5.33;4.00;;;;;21.15;100.00;101372.59;5017181;28;45589;-82
2022/07/30 04:43:42;;;;;;;;;4.33;3.67;;;;;21.20;100.00;101348.63;5022370;28;45832;-79
2022/07/30 04:46:07;;;;;;;;;6.33;4.33;;;;;21.48;100.00;101369.78;5025312;28;45498;-80
2022/07/30 04:48:33;;;;;;;;;4.67;4.67;;;;;21.57;100.00;101362.66;5019943;28;45529;-78
2022/07/30 04:51:02;;;;;;;;;4.00;2.33;;;;;21.63;100.00;101369.94;5022359;28;45738;-77
2022/07/30 04:53:28;;;;;;;;;4.00;4.00;;;;;21.77;100.00;101361.94;5024574;28;46209;-82
2022/07/30 04:55:55;;;;;;;;;6.33;5.00;;;;;22.22;99.19;101373.66;5021313;28;45487;-82
2022/07/30 04:58:22;;;;;;;;;3.00;3.00;;;;;22.67;96.67;101369.38;5027093;28;45552;-78
2022/07/30 05:00:51;;;;;;;;;5.00;4.00;;;;;23.18;94.08;101362.22;5020431;28;45411;-81
2022/07/30 05:03:20;;;;;;;;;4.00;4.00;;;;;23.67;90.78;101367.25;5019152;28;45538;-79
2022/07/30 05:05:47;;;;;;;;;2.67;2.67;;;;;24.10;86.91;101356.53;5033829;28;45434;-80
2022/07/30 05:08:13;;;;;;;;;3.00;2.33;;;;;24.64;82.91;101356.84;5031436;28;45411;-80
2022/07/30 05:10:39;;;;;;;;;3.00;3.00;;;;;25.18;79.01;101371.91;5012616;28;46076;-78
2022/07/30 05:13:10;;;;;;;;;4.67;3.67;;;;;25.74;74.75;101379.06;5015936;28;46147;-81
2022/07/30 05:15:36;;;;;;;;;3.00;2.33;;;;;26.27;71.06;101377.38;5016981;28;45539;-79
2022/07/30 05:18:01;;;;;;;;;3.00;3.00;;;;;26.70;68.10;101374.59;5017338;28;45345;-80
2022/07/30 05:20:26;;;;;;;;;4.00;3.33;;;;;27.27;64.70;101383.84;5024006;28;45874;-79
2022/07/30 05:22:52;;;;;;;;;3.00;3.00;;;;;27.74;62.58;101383.09;5032890;28;48183;-80
2022/07/30 05:25:17;;;;;;;;;4.00;4.00;;;;;28.19;59.84;101380.59;5022197;28;45384;-80
2022/07/30 05:27:43;;;;;;;;;5.25;3.75;;;;;28.56;58.07;101387.13;5005169;28;46509;-79
2022/07/30 05:30:09;;;;;;;;;3.25;2.75;;;;;29.03;55.96;101396.25;5017761;28;45605;-83
2022/07/30 05:32:34;;;;;;;;;4.33;4.33;;;;;29.63;53.72;101387.72;5033977;28;46994;-79
2022/07/30 05:35:00;;;;;;;;;3.00;3.00;;;;;30.10;51.92;101393.84;5008460;28;46109;-83
2022/07/30 05:37:25;;;;;;;;;4.00;4.00;;;;;30.58;49.64;101383.69;5008486;28;46095;-81
2022/07/30 05:39:51;;;;;;;;;4.75;3.25;;;;;31.16;48.14;101388.09;5008683;28;46256;-81
2022/07/30 05:42:16;;;;;;;;;2.25;1.75;;;;;31.86;46.11;101387.19;5008725;28;45475;-81
2022/07/30 05:44:42;;;;;;;;;3.25;3.25;;;;;32.58;43.54;101384.53;5010057;28;45507;-80
2022/07/30 05:47:10;;;;;;;;;4.00;3.33;;;;;33.10;41.51;101391.84;5007605;28;45809;-79
2022/07/30 05:49:36;;;;;;;;;4.00;4.00;;;;;33.49;39.68;101381.16;5008072;28;45565;-80
2022/07/30 05:52:01;;;;;;;;;5.00;4.00;;;;;33.94;39.32;101388.03;5005372;28;47135;-81
2022/07/30 05:54:27;;;;;;;;;5.25;4.50;;;;;34.55;36.93;101384.38;5008516;28;45818;-78
2022/07/30 05:56:52;;;;;;;;;5.00;5.00;;;;;35.04;36.04;101394.03;5010688;28;45851;-79
2022/07/30 05:59:17;;;;;;;;;6.50;5.75;;;;;35.37;34.86;101396.66;5008333;28;45594;-79
2022/07/30 06:01:43;;;;;;;;;4.50;4.25;;;;;35.68;33.65;101389.38;5015625;28;47228;-79
2022/07/30 06:04:08;;;;;;;;;4.75;4.00;;;;;36.12;32.91;101394.22;5007906;28;45437;-77
2022/07/30 06:06:34;;;;;;;;;6.75;3.50;;;;;36.39;32.39;101390.47;5011316;28;45734;-79
2022/07/30 06:08:59;;;;;;;;;6.00;4.25;;;;;36.58;31.68;101386.81;5010556;28;45455;-77
2022/07/30 06:11:25;;;;;;;;;6.00;4.50;;;;;36.70;31.60;101388.72;5014294;28;45949;-79
2022/07/30 06:13:50;;;;;;;;;5.00;4.00;;;;;36.92;31.00;101403.53;5011597;28;45574;-78
2022/07/30 06:16:15;;;;;;;;;6.50;5.00;;;;;37.09;29.93;101396.53;5010490;28;45903;-79
2022/07/30 06:18:41;;;;;;;;;3.75;3.75;;;;;37.36;30.00;101391.81;5009052;28;45847;-78
2022/07/30 06:21:06;;;;;;;;;5.00;5.00;;;;;37.61;29.54;101400.88;5019739;28;46208;-80
2022/07/30 06:23:32;;;;;;;;;5.00;5.00;;;;;37.96;29.29;101396.22;5015614;28;45482;-79
2022/07/30 06:25:57;;;;;;;;;1.75;1.75;;;;;38.61;28.26;101391.56;5012505;28;45445;-79
2022/07/30 06:28:23;;;;;;;;;4.75;4.25;;;;;39.25;27.56;101406.00;5011793;28;45765;-79
2022/07/30 06:30:49;;;;;;;;;6.00;4.00;;;;;39.29;27.06;101389.66;5004887;28;46054;-80
2022/07/30 06:33:15;;;;;;;;;6.00;5.00;;;;;39.39;27.17;101413.97;5012385;28;45626;-80
2022/07/30 06:35:40;;;;;;;;;4.00;4.00;;;;;39.57;27.60;101419.09;5015526;28;44840;-79
2022/07/30 06:38:06;;;;;;;;;7.00;3.25;;;;;39.86;27.50;101412.44;5008875;28;47542;-80
2022/07/30 06:40:33;;;;;;;;;5.75;4.50;;;;;40.32;26.06;101413.25;5010142;28;46150;-80
2022/07/30 06:42:59;;;;;;;;;5.00;5.00;;;;;41.05;26.12;101433.53;5010633;28;45543;-80
2022/07/30 06:45:24;;;;;;;;;4.00;4.00;;;;;41.48;24.55;101421.38;5011659;28;45612;-80
2022/07/30 06:47:50;;;;;;;;;4.00;4.00;;;;;41.57;24.14;101426.75;5009795;28;45857;-79
2022/07/30 06:50:17;;;;;;;;;4.50;4.25;;;;;41.97;23.75;101421.91;5011611;28;45979;-79
2022/07/30 06:52:43;;;;;;;;;4.50;4.50;;;;;42.62;23.05;101419.84;5016250;28;45669;-81
2022/07/30 06:55:09;;;;;;;;;5.50;3.25;;;;;42.99;22.29;101421.38;5031801;28;45501;-80
2022/07/30 06:57:34;;;;;;;;;4.00;4.00;;;;;42.94;22.68;101401.63;5017558;28;45929;-80
2022/07/30 07:00:00;;;;;;;;;3.25;3.25;;;;;43.24;22.52;101420.50;5010380;28;48057;-80
2022/07/30 07:02:25;;;;;;;;;5.00;3.00;;;;;43.43;22.05;101427.03;5015617;28;46036;-80
2022/07/30 07:04:51;;;;;;;;;4.00;4.00;;;;;43.68;21.24;101427.69;5014323;28;45574;-79
2022/07/30 07:07:16;;;;;;;;;3.75;3.75;;;;;43.99;21.36;101435.78;5018292;28;45883;-79
2022/07/30 07:09:42;;;;;;;;;4.25;3.25;;;;;44.21;20.92;101436.41;5009843;28;47529;-78
2022/07/30 07:12:07;;;;;;;;;5.00;4.25;;;;;44.63;20.79;101443.09;5009355;28;45606;-75
2022/07/30 07:14:41;;;;;;;;;4.00;3.00;;;;;44.63;20.90;101434.44;5004978;28;45541;-86
2022/07/30 07:17:10;;;;;;;;;2.33;2.33;;;;;44.01;21.49;101427.50;5015436;28;45616;-79
2022/07/30 07:19:36;;;;;;;;;4.00;2.25;;;;;43.15;21.29;101420.94;5007117;28;45883;-76
2022/07/30 07:22:02;;;;;;;;;5.33;4.00;;;;;43.09;22.31;101428.41;5006456;28;45879;-81
2022/07/30 07:24:27;;;;;;;;;7.00;5.00;;;;;42.99;21.50;101414.81;5014155;28;45671;-80
2022/07/30 07:26:54;;;;;;;;;4.50;4.50;;;;;43.06;20.91;101431.28;5016357;28;45534;-80
2022/07/30 07:29:19;;;;;;;;;3.67;3.67;;;;;43.51;21.39;101428.66;5012486;28;45839;-78
2022/07/30 07:31:45;;;;;;;;;6.33;4.00;;;;;43.50;20.93;101429.88;5009435;28;45826;-78
2022/07/30 07:34:10;;;;;;;;;3.00;3.00;;;;;43.53;20.94;101431.91;5014841;28;45918;-79
2022/07/30 07:36:36;;;;;;;;;6.00;5.00;;;;;43.90;21.51;101431.28;5013008;28;46217;-79
2022/07/30 07:39:02;;;;;;;;;4.25;3.50;;;;;44.36;21.25;101432.19;5009014;28;45821;-79
2022/07/30 07:41:28;;;;;;;;;3.25;3.25;;;;;44.51;20.51;101427.06;4999156;28;45527;-78
2022/07/30 07:43:53;;;;;;;;;4.25;4.25;;;;;44.28;20.89;101418.22;5008385;28;45785;-78
2022/07/30 07:46:19;;;;;;;;;5.33;5.33;;;;;43.89;20.35;101392.06;5023787;28;45959;-79
2022/07/30 07:48:44;;;;;;;;;5.67;5.33;;;;;43.94;20.75;101425.47;5019941;28;46770;-78
2022/07/30 07:51:10;;;;;;;;;4.00;4.00;;;;;43.68;20.94;101432.66;5019085;28;45515;-79
2022/07/30 07:53:37;;;;;;;;;8.67;7.33;;;;;43.70;20.81;101413.66;5017232;28;45884;-79
2022/07/30 07:56:03;;;;;;;;;5.00;5.00;;;;;43.56;20.55;101426.13;5010771;28;45686;-76
2022/07/30 07:58:29;;;;;;;;;4.67;4.67;;;;;43.83;20.92;101436.31;5009378;28;45495;-78
2022/07/30 08:00:54;;;;;;;;;5.00;4.67;;;;;44.47;20.27;101426.28;5011986;28;45461;-77
2022/07/30 08:03:20;;;;;;;;;7.33;6.00;;;;;44.72;19.98;101422.31;5015430;28;45709;-78
2022/07/30 08:05:45;;;;;;;;;7.00;5.00;;;;;44.51;19.99;101426.22;5005189;28;45571;-77
2022/07/30 08:08:11;;;;;;;;;5.00;4.00;;;;;44.17;20.32;101424.06;5008647;28;45606;-78
2022/07/30 08:10:42;;;;;;;;;4.00;4.00;;;;;44.30;20.31;101430.16;4990483;28;45507;-80
2022/07/30 08:13:08;;;;;;;;;4.67;4.67;;;;;44.71;20.14;101430.19;5010552;28;45383;-78
2022/07/30 08:15:34;;;;;;;;;5.25;5.25;;;;;45.21;19.70;101419.28;5005600;28;45952;-80
2022/07/30 08:17:59;;;;;;;;;3.00;3.00;;;;;45.59;19.59;101434.50;5003163;28;47304;-77
2022/07/30 08:20:25;;;;;;;;;5.00;5.00;;;;;45.69;18.99;101412.38;5005516;28;45864;-77
2022/07/30 08:22:51;;;;;;;;;6.00;4.00;;;;;45.55;18.88;101409.72;5012143;28;46054;-77
2022/07/30 08:25:16;;;;;;;;;3.50;3.50;;;;;45.32;19.54;101434.44;5008233;28;46088;-78
2022/07/30 08:27:45;;;;;;;;;3.67;3.67;;;;;44.80;19.99;101411.50;5009765;28;47336;-78
2022/07/30 08:30:11;;;;;;;;;5.00;3.00;;;;;44.26;19.90;101415.75;5007107;28;46586;-78
2022/07/30 08:32:37;;;;;;;;;6.00;5.00;;;;;43.90;19.74;101433.38;5011920;28;45759;-76
2022/07/30 08:35:06;;;;;;;;;5.00;5.00;;;;;43.04;20.49;101414.38;5018529;28;46076;-79
2022/07/30 08:37:32;;;;;;;;;6.67;4.33;;;;;42.54;20.95;101426.03;5014394;28;45598;-78
2022/07/30 08:39:58;;;;;;;;;4.00;4.00;;;;;42.53;20.78;101433.03;5009096;28;45772;-79
2022/07/30 08:42:23;;;;;;;;;6.33;6.33;;;;;42.36;21.26;101431.81;5009866;28;45507;-78
2022/07/30 08:44:52;;;;;;;;;4.00;4.00;;;;;42.33;21.25;101434.28;5009248;28;47500;-78
2022/07/30 08:47:19;;;;;;;;;3.33;3.00;;;;;42.56;20.30;101437.97;5012870;28;46066;-79
2022/07/30 08:49:46;;;;;;;;;3.00;3.00;;;;;42.60;20.16;101409.97;5010324;28;45619;-78
2022/07/30 08:52:12;;;;;;;;;5.67;4.00;;;;;42.67;20.76;101428.09;5006907;28;45829;-79
2022/07/30 08:54:39;;;;;;;;;5.67;4.67;;;;;43.03;19.97;101428.00;5015226;28;45688;-79
2022/07/30 08:57:05;;;;;;;;;3.67;3.00;;;;;44.16;19.37;101437.69;5002067;28;45875;-78
2022/07/30 08:59:31;;;;;;;;;3.67;3.33;;;;;45.00;18.61;101446.41;5006188;28;45387;-77
2022/07/30 09:01:57;;;;;;;;;5.00;4.00;;;;;45.46;18.08;101434.25;5002809;28;45729;-78
2022/07/30 09:04:23;;;;;;;;;3.00;3.00;;;;;46.17;17.81;101428.63;5009780;28;46227;-77
2022/07/30 09:06:48;;;;;;;;;4.00;3.00;;;;;47.43;16.74;101439.06;5009544;28;46780;-77
2022/07/30 09:09:14;;;;;;;;;5.00;5.00;;;;;48.08;16.43;101435.50;5009049;28;46057;-78
2022/07/30 09:11:40;;;;;;;;;4.33;3.67;;;;;48.73;15.91;101419.19;5008512;28;45659;-78
2022/07/30 09:14:10;;;;;;;;;5.33;4.00;;;;;49.35;15.21;101426.97;5004083;28;45736;-78
2022/07/30 09:16:35;;;;;;;;;2.33;2.33;;;;;49.82;14.78;101430.03;5010731;28;46473;-77
2022/07/30 09:19:13;;;;;;;;;4.00;4.00;;;;;50.07;14.39;101442.19;5009434;28;45535;-77
2022/07/30 09:21:38;;;;;;;;;3.33;3.00;;;;;49.33;14.43;101426.63;5009101;28;45539;-78
2022/07/30 09:24:10;;;;;;;;;2.00;2.00;;;;;48.69;15.27;101430.13;5007565;28;45670;-77
2022/07/30 09:26:58;;;;;;;;;3.67;2.67;;;;;48.25;15.16;101430.47;5009543;28;47564;-80
2022/07/30 09:29:28;;;;;;;;;3.00;2.00;;;;;47.95;14.39;101435.34;5019851;28;46219;-79
2022/07/30 09:32:02;;;;;;;;;3.00;3.00;;;;;47.78;15.04;101431.63;5004332;28;45498;-80
2022/07/30 09:34:30;;;;;;;;;3.67;2.67;;;;;48.25;14.86;101434.22;5002648;28;45800;-79
2022/07/30 09:36:58;;;;;;;;;3.33;2.33;;;;;48.45;14.56;101433.31;5007054;28;45807;-80
2022/07/30 09:39:32;;;;;;;;;2.00;1.67;;;;;48.93;14.99;101434.44;5008322;28;45946;-78
2022/07/30 09:41:58;;;;;;;;;1.67;1.67;;;;;49.51;14.45;101438.53;5005344;28;45689;-78
2022/07/30 09:44:27;;;;;;;;;2.00;2.00;;;;;49.62;14.26;101433.19;5007841;28;45760;-77
2022/07/30 09:46:52;;;;;;;;;3.00;3.00;;;;;50.22;14.31;101433.72;5008820;28;45545;-79
2022/07/30 09:49:23;;;;;;;;;1.67;1.67;;;;;50.94;14.18;101440.72;5008631;28;45863;-77
2022/07/30 09:51:50;;;;;;;;;2.00;2.00;;;;;51.90;12.96;101441.13;4998539;28;45559;-80
2022/07/30 09:54:16;;;;;;;;;3.67;3.00;;;;;52.51;12.90;101451.50;5013201;28;45605;-78
2022/07/30 09:56:47;;;;;;;;;2.00;2.00;;;;;52.53;12.32;101437.19;5014262;28;45530;-78
2022/07/30 09:59:39;;;;;;;;;2.33;2.33;;;;;52.75;12.46;101442.91;5001791;28;45603;-79
2022/07/30 10:02:05;;;;;;;;;2.00;2.00;;;;;52.84;12.35;101415.69;4997261;28;45928;-78
2022/07/30 10:04:32;;;;;;;;;3.33;2.00;;;;;52.80;12.00;101429.72;5010826;28;45627;-79
2022/07/30 10:06:59;;;;;;;;;3.33;2.67;;;;;52.90;12.34;101419.63;5000052;28;45411;-79
2022/07/30 10:09:35;;;;;;;;;2.67;2.67;;;;;53.20;12.82;101426.56;5009031;28;45458;-78
2022/07/30 10:12:04;;;;;;;;;2.00;2.00;;;;;53.02;12.28;101415.72;5002667;28;46040;-78
2022/07/30 10:14:35;;;;;;;;;2.33;2.33;;;;;52.87;12.56;101423.53;5009957;28;45765;-78
2022/07/30 10:17:02;;;;;;;;;2.00;2.00;;;;;53.09;12.20;101427.09;5007906;28;46560;-80
2022/07/30 10:19:29;;;;;;;;;3.67;3.67;;;;;53.27;12.57;101431.25;5008978;28;45940;-80
2022/07/30 10:21:56;;;;;;;;;5.00;3.00;;;;;53.06;12.40;101413.44;5002981;28;45962;-78
2022/07/30 10:24:23;;;;;;;;;2.67;2.67;;;;;53.22;12.65;101423.94;5017717;28;45537;-76
2022/07/30 10:26:50;;;;;;;;;2.67;2.67;;;;;53.13;12.78;101410.13;5012135;28;46209;-77
2022/07/30 10:29:17;;;;;;;;;3.00;3.00;;;;;53.38;11.90;101419.84;5012075;28;45744;-78
2022/07/30 10:31:44;;;;;;;;;3.00;3.00;;;;;53.75;11.60;101407.97;5013420;28;45888;-78
2022/07/30 10:34:12;;;;;;;;;2.67;2.67;;;;;53.50;11.88;101402.50;5008358;28;45598;-78
2022/07/30 10:36:40;;;;;;;;;5.00;4.00;;;;;53.13;12.51;101413.06;5006347;28;45532;-79
2022/07/30 10:39:11;;;;;;;;;4.67;3.67;;;;;53.33;13.35;101399.97;5006688;28;45529;-81
2022/07/30 10:41:56;;;;;;;;;4.00;4.00;;;;;53.64;12.54;101408.47;5012297;28;45863;-82
2022/07/30 10:44:46;;;;;;;;;4.33;4.33;;;;;53.44;12.91;101387.75;5010123;28;45522;-83
2022/07/30 10:47:17;;;;;;;;;3.67;3.67;;;;;53.03;12.34;101417.34;5008915;28;45480;-81
2022/07/30 10:50:12;;;;;;;;;4.00;4.00;;;;;52.24;12.85;101403.34;5020167;28;45921;-83
2022/07/30 10:52:49;;;;;;;;;3.33;3.33;;;;;51.82;13.08;101406.78;5015817;28;45515;-83
2022/07/30 10:55:26;;;;;;;;;3.67;3.67;;;;;51.46;13.13;101411.19;5011180;28;45759;-83
2022/07/30 10:58:16;;;;;;;;;3.00;3.00;;;;;51.04;13.56;101404.47;5026428;28;45449;-83
2022/07/30 11:00:51;;;;;;;;;3.00;3.00;;;;;50.43;13.84;101403.00;5021437;28;45299;-85
2022/07/30 11:03:47;;;;;;;;;3.67;3.33;;;;;49.86;13.88;101397.00;5018023;28;45625;-84
2022/07/30 11:06:36;;;;;;;;;3.33;3.33;;;;;49.54;13.73;101402.63;5014047;28;45565;-86
2022/07/30 11:09:37;;;;;;;;;3.67;3.67;;;;;49.16;14.36;101394.63;5010832;28;47751;-80
2022/07/30 11:12:18;;;;;;;;;2.67;2.00;;;;;49.30;14.64;101405.88;5018576;28;45682;-83
2022/07/30 11:14:47;;;;;;;;;2.67;2.67;;;;;49.00;14.37;101397.63;5018197;28;45912;-81
2022/07/30 11:17:14;;;;;;;;;3.00;3.00;;;;;48.44;14.62;101373.44;5008464;28;45884;-80
2022/07/30 11:27:13;;;;;;;;;5.33;3.67;;;;;46.58;16.49;101385.22;4886489;29;45445;-82
2022/07/30 11:29:44;;;;;;;;;3.00;3.00;;;;;46.01;16.43;101385.00;4882256;29;45584;-80
2022/07/30 11:32:29;;;;;;;;;3.33;3.33;;;;;45.04;17.16;101390.13;4935767;28;46402;-81
2022/07/30 11:35:43;;;;;;;;;4.67;4.00;;;;;44.15;18.45;101381.13;4932302;28;45636;-84
2022/07/30 11:38:20;;;;;;;;;4.00;4.00;;;;;43.25;18.42;101354.91;4928774;28;45904;-82